createdAt,value
2022-11-05T00:02:32.290Z,8.76
2022-11-05T00:05:18.463Z,8.75
2022-11-05T00:08:09.015Z,8.72
2022-11-05T00:10:37.967Z,8.74
2022-11-05T00:13:24.994Z,8.75
2022-11-05T00:16:11.542Z,8.76
2022-11-05T00:18:39.260Z,8.76
2022-11-05T00:21:27.260Z,8.76
2022-11-05T00:24:13.560Z,8.73
2022-11-05T00:26:41.728Z,8.71
2022-11-05T00:29:09.335Z,8.69
2022-11-05T00:31:36.915Z,8.66
2022-11-05T00:34:04.523Z,8.64
2022-11-05T00:36:33.407Z,8.64
2022-11-05T00:39:01.606Z,8.62
2022-11-05T00:41:29.588Z,8.62
2022-11-05T00:44:16.796Z,8.61
2022-11-05T00:46:44.646Z,8.58
2022-11-05T00:49:30.113Z,8.58
2022-11-05T00:52:16.140Z,8.57
2022-11-05T00:54:45.116Z,8.55
2022-11-05T00:57:12.773Z,8.56
2022-11-05T00:59:41.420Z,8.56
2022-11-05T01:02:09.165Z,8.58
2022-11-05T01:04:36.962Z,8.57
2022-11-05T01:07:04.816Z,8.56
2022-11-05T01:09:33.083Z,8.57
2022-11-05T01:12:00.817Z,8.57
2022-11-05T01:14:28.482Z,8.52
2022-11-05T01:16:56.015Z,8.49
2022-11-05T01:19:23.619Z,8.49
2022-11-05T01:21:51.257Z,8.50
2022-11-05T01:24:19.072Z,8.51
2022-11-05T01:26:47.381Z,8.49
2022-11-05T01:29:15.300Z,8.49
2022-11-05T01:31:44.210Z,8.49
2022-11-05T01:34:11.804Z,8.47
2022-11-05T01:36:39.348Z,8.46
2022-11-05T01:39:06.893Z,8.43
2022-11-05T01:41:34.488Z,8.43
2022-11-05T01:44:03.439Z,8.40
2022-11-05T01:46:40.341Z,8.40
2022-11-05T01:49:15.508Z,8.41
2022-11-05T01:51:43.074Z,8.40
2022-11-05T01:54:12.657Z,8.38
2022-11-05T01:56:42.844Z,8.38
2022-11-05T01:59:12.570Z,8.37
2022-11-05T02:01:40.204Z,8.37
2022-11-05T02:04:10.354Z,8.39
2022-11-05T02:06:46.184Z,8.36
2022-11-05T02:09:28.596Z,8.36
2022-11-05T02:11:56.372Z,8.39
2022-11-05T02:14:24.054Z,8.40
2022-11-05T02:17:15.171Z,8.26
2022-11-05T02:20:20.445Z,8.18
2022-11-05T02:22:47.959Z,8.22
2022-11-05T02:25:30.524Z,8.34
2022-11-05T02:28:04.035Z,8.38
2022-11-05T02:30:38.479Z,8.43
2022-11-05T02:33:47.819Z,8.42
2022-11-05T02:36:32.561Z,8.41
2022-11-05T02:39:17.564Z,8.38
2022-11-05T02:41:51.125Z,8.35
2022-11-05T02:44:41.946Z,8.40
2022-11-05T02:47:24.307Z,8.44
2022-11-05T02:50:14.187Z,8.45
2022-11-05T02:53:04.180Z,8.45
2022-11-05T02:55:42.627Z,8.45
2022-11-05T02:58:10.343Z,8.45
2022-11-05T03:00:51.830Z,8.47
2022-11-05T03:03:25.398Z,8.49
2022-11-05T03:05:52.964Z,8.52
2022-11-05T03:08:41.366Z,8.52
2022-11-05T03:11:15.890Z,8.52
2022-11-05T03:14:07.251Z,8.47
2022-11-05T03:16:44.584Z,8.42
2022-11-05T03:19:30.652Z,8.44
2022-11-05T03:22:02.864Z,8.46
2022-11-05T03:24:35.648Z,8.46
2022-11-05T03:27:06.768Z,8.43
2022-11-05T03:29:41.708Z,8.42
2022-11-05T03:32:09.407Z,8.43
2022-11-05T03:34:43.152Z,8.44
2022-11-05T03:37:11.019Z,8.44
2022-11-05T03:39:46.110Z,8.41
2022-11-05T03:42:15.952Z,8.43
2022-11-05T03:44:46.495Z,8.43
2022-11-05T03:47:15.835Z,8.42
2022-11-05T03:49:56.782Z,8.38
2022-11-05T03:52:26.528Z,8.32
2022-11-05T03:54:54.189Z,8.24
2022-11-05T03:57:27.028Z,8.16
2022-11-05T03:59:54.831Z,8.06
2022-11-05T04:02:23.653Z,8.00
2022-11-05T04:04:52.489Z,7.95
2022-11-05T04:07:38.715Z,7.91
2022-11-05T04:10:28.178Z,7.89
2022-11-05T04:13:14.528Z,7.86
2022-11-05T04:16:01.405Z,7.79
2022-11-05T04:18:29.307Z,7.77
2022-11-05T04:21:18.047Z,7.74
2022-11-05T04:24:04.014Z,7.68
2022-11-05T04:26:31.732Z,7.64
2022-11-05T04:29:17.922Z,7.63
2022-11-05T04:31:47.372Z,7.59
2022-11-05T04:34:16.435Z,7.57
2022-11-05T04:36:44.064Z,7.51
2022-11-05T04:39:11.812Z,7.51
2022-11-05T04:41:39.562Z,7.53
2022-11-05T04:44:08.489Z,7.51
2022-11-05T04:46:36.179Z,7.54
2022-11-05T04:49:03.791Z,7.55
2022-11-05T04:51:33.288Z,7.59
2022-11-05T04:54:01.072Z,7.66
2022-11-05T04:56:31.433Z,7.75
2022-11-05T04:58:59.066Z,7.81
2022-11-05T05:01:26.711Z,7.80
2022-11-05T05:03:54.470Z,7.89
2022-11-05T05:06:22.774Z,7.94
2022-11-05T05:08:51.075Z,8.01
2022-11-05T05:11:20.664Z,8.05
2022-11-05T05:13:48.538Z,8.15
2022-11-05T05:16:23.131Z,8.29
2022-11-05T05:18:50.942Z,8.35
2022-11-05T05:21:39.469Z,8.46
2022-11-05T05:24:11.871Z,8.54
2022-11-05T05:26:49.125Z,8.55
2022-11-05T05:29:17.298Z,8.54
2022-11-05T05:31:45.036Z,8.39
2022-11-05T05:34:13.900Z,8.21
2022-11-05T05:36:41.572Z,8.11
2022-11-05T05:39:11.125Z,8.12
2022-11-05T05:41:38.893Z,8.16
2022-11-05T05:44:06.873Z,8.18
2022-11-05T05:46:34.571Z,8.21
2022-11-05T05:49:04.521Z,8.22
2022-11-05T05:51:35.504Z,8.34
2022-11-05T05:54:03.563Z,8.38
2022-11-05T05:56:31.250Z,8.47
2022-11-05T05:58:58.883Z,8.53
2022-11-05T06:01:26.856Z,8.63
2022-11-05T06:03:54.741Z,8.73
2022-11-05T06:06:22.866Z,8.85
2022-11-05T06:08:50.647Z,8.94
2022-11-05T06:11:18.487Z,9.02
2022-11-05T06:13:46.167Z,9.08
2022-11-05T06:16:15.118Z,9.10
2022-11-05T06:18:42.835Z,9.09
2022-11-05T06:21:12.121Z,8.91
2022-11-05T06:23:40.717Z,8.85
2022-11-05T06:26:12.615Z,8.89
2022-11-05T06:28:42.244Z,9.04
2022-11-05T06:31:11.009Z,9.17
2022-11-05T06:33:39.033Z,9.23
2022-11-05T06:36:07.655Z,9.20
2022-11-05T06:38:36.356Z,9.19
2022-11-05T06:41:09.863Z,9.22
2022-11-05T06:43:38.334Z,9.22
2022-11-05T06:46:06.005Z,9.33
2022-11-05T06:48:35.546Z,9.14
2022-11-05T06:51:03.861Z,9.35
2022-11-05T06:53:31.652Z,9.29
2022-11-05T06:56:03.134Z,9.44
2022-11-05T06:58:31.403Z,9.61
2022-11-05T07:01:08.172Z,9.81
2022-11-05T07:03:39.167Z,9.75
2022-11-05T07:06:07.305Z,9.70
2022-11-05T07:08:35.496Z,9.79
2022-11-05T07:11:03.828Z,9.98
2022-11-05T07:13:32.160Z,10.18
2022-11-05T07:16:01.481Z,10.22
2022-11-05T07:18:29.342Z,10.33
2022-11-05T07:20:57.039Z,10.41
2022-11-05T07:23:25.677Z,10.24
2022-11-05T07:25:53.349Z,10.38
2022-11-05T07:28:21.602Z,10.25
2022-11-05T07:30:49.568Z,10.42
2022-11-05T07:33:17.116Z,10.67
2022-11-05T07:35:44.932Z,10.59
2022-11-05T07:38:12.840Z,10.86
2022-11-05T07:40:40.917Z,11.13
2022-11-05T07:43:09.387Z,11.22
2022-11-05T07:45:37.506Z,11.32
2022-11-05T07:48:06.534Z,11.37
2022-11-05T07:50:36.283Z,11.13
2022-11-05T07:53:05.809Z,11.21
2022-11-05T07:55:33.912Z,11.18
2022-11-05T07:58:07.742Z,11.13
2022-11-05T08:00:35.797Z,10.89
2022-11-05T08:03:08.888Z,10.94
2022-11-05T08:05:44.476Z,11.18
2022-11-05T08:08:17.537Z,11.14
2022-11-05T08:10:45.311Z,11.29
2022-11-05T08:13:13.556Z,11.21
2022-11-05T08:15:42.413Z,11.32
2022-11-05T08:18:15.467Z,11.27
2022-11-05T08:20:43.639Z,11.38
2022-11-05T08:23:12.676Z,11.16
2022-11-05T08:25:42.595Z,11.43
2022-11-05T08:28:11.711Z,11.63
2022-11-05T08:30:57.960Z,11.64
2022-11-05T08:33:25.825Z,11.76
2022-11-05T08:35:53.564Z,11.39
2022-11-05T08:38:21.383Z,11.26
2022-11-05T08:40:57.603Z,11.41
2022-11-05T08:43:25.625Z,11.28
2022-11-05T08:45:54.245Z,11.09
2022-11-05T08:48:21.970Z,11.03
2022-11-05T08:50:49.920Z,10.85
2022-11-05T08:53:17.693Z,10.90
2022-11-05T08:55:47.719Z,10.82
2022-11-05T08:58:17.172Z,10.78
2022-11-05T09:00:46.399Z,10.71
2022-11-05T09:03:14.553Z,10.74
2022-11-05T09:05:43.136Z,10.74
2022-11-05T09:08:19.752Z,10.95
2022-11-05T09:10:47.697Z,11.11
2022-11-05T09:13:19.732Z,11.25
2022-11-05T09:15:49.292Z,11.07
2022-11-05T09:18:17.242Z,11.09
2022-11-05T09:20:45.128Z,11.29
2022-11-05T09:23:15.030Z,11.26
2022-11-05T09:25:43.534Z,11.70
2022-11-05T09:28:22.503Z,11.80
2022-11-05T09:30:51.482Z,11.60
2022-11-05T09:33:24.305Z,11.79
2022-11-05T09:35:52.911Z,11.98
2022-11-05T09:38:20.478Z,11.84
2022-11-05T09:41:12.678Z,11.82
2022-11-05T09:43:44.436Z,12.06
2022-11-05T09:46:32.119Z,12.01
2022-11-05T09:49:04.436Z,11.69
2022-11-05T09:51:32.270Z,11.94
2022-11-05T09:54:03.021Z,11.96
2022-11-05T09:56:32.296Z,11.98
2022-11-05T09:59:17.245Z,11.83
2022-11-05T10:01:45.307Z,11.97
2022-11-05T10:04:21.001Z,11.91
2022-11-05T10:06:58.654Z,11.80
2022-11-05T10:09:33.234Z,11.75
2022-11-05T10:12:11.874Z,11.78
2022-11-05T10:14:51.386Z,11.69
2022-11-05T10:17:25.269Z,12.04
2022-11-05T10:20:24.915Z,11.96
2022-11-05T10:22:56.188Z,11.93
2022-11-05T10:25:26.960Z,12.02
2022-11-05T10:27:55.287Z,12.04
2022-11-05T10:30:23.651Z,11.95
2022-11-05T10:32:56.792Z,11.85
2022-11-05T10:35:24.743Z,11.62
2022-11-05T10:37:53.759Z,11.73
2022-11-05T10:40:39.549Z,11.83
2022-11-05T10:43:12.023Z,11.84
2022-11-05T10:45:53.039Z,11.72
2022-11-05T10:48:20.466Z,11.82
2022-11-05T10:51:08.197Z,11.60
2022-11-05T10:53:39.708Z,11.74
2022-11-05T10:56:27.787Z,11.80
2022-11-05T10:58:57.559Z,11.90
2022-11-05T11:01:26.716Z,11.97
2022-11-05T11:04:13.261Z,11.93
2022-11-05T11:06:45.201Z,12.00
2022-11-05T11:09:29.259Z,12.04
2022-11-05T11:12:00.225Z,12.16
2022-11-05T11:14:28.117Z,12.52
2022-11-05T11:16:58.773Z,12.71
2022-11-05T11:19:33.295Z,12.66
2022-11-05T11:22:05.631Z,12.80
2022-11-05T11:24:40.547Z,13.03
2022-11-05T11:27:14.377Z,13.07
2022-11-05T11:29:55.271Z,13.23
2022-11-05T11:32:23.250Z,13.17
2022-11-05T11:34:53.060Z,13.10
2022-11-05T11:37:30.590Z,12.71
2022-11-05T11:40:02.538Z,12.64
2022-11-05T11:42:34.197Z,12.67
2022-11-05T11:45:07.946Z,12.53
2022-11-05T11:47:36.422Z,12.31
2022-11-05T11:50:05.066Z,11.86
2022-11-05T11:52:37.042Z,11.71
2022-11-05T11:55:18.692Z,11.43
2022-11-05T11:57:55.650Z,11.16
2022-11-05T12:00:24.065Z,11.09
2022-11-05T12:03:18.033Z,10.85
2022-11-05T12:05:48.873Z,10.72
2022-11-05T12:09:06.780Z,10.69
2022-11-05T12:11:45.216Z,10.52
2022-11-05T12:14:33.093Z,10.49
2022-11-05T12:17:34.390Z,10.43
2022-11-05T12:20:10.211Z,10.37
2022-11-05T12:23:19.295Z,10.35
2022-11-05T12:26:07.961Z,10.34
2022-11-05T12:29:12.058Z,10.38
2022-11-05T12:31:43.910Z,10.44
2022-11-05T12:34:34.326Z,10.71
2022-11-05T12:37:07.759Z,10.92
2022-11-05T12:39:45.475Z,11.44
2022-11-05T12:42:31.392Z,11.67
2022-11-05T12:45:36.140Z,11.67
2022-11-05T12:48:41.417Z,11.44
2022-11-05T12:51:31.124Z,11.27
2022-11-05T12:54:22.583Z,10.94
2022-11-05T12:57:19.658Z,10.89
2022-11-05T12:59:55.015Z,10.88
2022-11-05T13:02:45.852Z,10.84
2022-11-05T13:05:39.239Z,10.84
2022-11-05T13:08:14.501Z,10.73
2022-11-05T13:10:49.689Z,10.59
2022-11-05T13:13:39.139Z,10.52
2022-11-05T13:16:29.931Z,10.51
2022-11-05T13:19:17.595Z,10.41
2022-11-05T13:21:52.606Z,10.39
2022-11-05T13:24:36.331Z,10.27
2022-11-05T13:27:25.380Z,10.13
2022-11-05T13:30:02.792Z,9.91
2022-11-05T13:32:34.864Z,9.91
2022-11-05T13:35:08.778Z,9.68
2022-11-05T13:38:00.004Z,9.47
2022-11-05T13:40:56.138Z,9.21
2022-11-05T13:43:35.904Z,9.09
2022-11-05T13:46:23.021Z,8.93
2022-11-05T13:48:56.767Z,8.78
2022-11-05T13:51:48.218Z,8.57
2022-11-05T13:54:39.847Z,8.44
2022-11-05T13:57:31.889Z,8.23
2022-11-05T14:00:19.561Z,8.19
2022-11-05T14:02:49.533Z,8.01
2022-11-05T14:05:28.439Z,7.89
2022-11-05T14:07:58.163Z,7.76
2022-11-05T14:10:38.206Z,7.66
2022-11-05T14:13:33.554Z,7.53
2022-11-05T14:16:05.069Z,7.46
2022-11-05T14:18:44.411Z,7.38
2022-11-05T14:21:27.495Z,7.32
2022-11-05T14:24:00.427Z,7.23
2022-11-05T14:26:30.143Z,7.12
2022-11-05T14:29:03.831Z,7.10
2022-11-05T14:31:54.335Z,7.09
2022-11-05T14:34:44.939Z,7.11
2022-11-05T14:37:24.321Z,7.09
2022-11-05T14:39:56.582Z,7.03
2022-11-05T14:42:31.335Z,6.96
2022-11-05T14:44:59.034Z,6.79
2022-11-05T14:47:29.142Z,6.67
2022-11-05T14:50:18.065Z,6.64
2022-11-05T14:52:57.359Z,6.54
2022-11-05T14:55:31.533Z,6.50
2022-11-05T14:57:59.193Z,6.43
2022-11-05T15:00:29.761Z,6.43
2022-11-05T15:03:00.016Z,6.43
2022-11-05T15:05:50.153Z,6.45
2022-11-05T15:08:24.897Z,6.36
2022-11-05T15:10:53.724Z,6.39
2022-11-05T15:13:30.434Z,6.42
2022-11-05T15:15:59.338Z,6.53
2022-11-05T15:18:37.104Z,6.54
2022-11-05T15:21:08.032Z,6.54
2022-11-05T15:23:42.144Z,6.57
2022-11-05T15:26:21.249Z,6.56
2022-11-05T15:28:55.410Z,6.56
2022-11-05T15:31:43.765Z,6.61
2022-11-05T15:34:39.937Z,6.60
2022-11-05T15:37:11.769Z,6.63
2022-11-05T15:39:44.871Z,6.61
2022-11-05T15:42:18.616Z,6.69
2022-11-05T15:44:53.480Z,6.66
2022-11-05T15:47:31.117Z,6.64
2022-11-05T15:50:07.500Z,6.58
2022-11-05T15:52:42.988Z,6.60
2022-11-05T15:55:13.299Z,6.54
2022-11-05T15:57:50.647Z,6.60
2022-11-05T16:00:29.567Z,6.58
2022-11-05T16:03:04.809Z,6.56
2022-11-05T16:05:36.660Z,6.59
2022-11-05T16:08:05.651Z,6.58
2022-11-05T16:10:35.848Z,6.54
2022-11-05T16:13:28.403Z,6.46
2022-11-05T16:15:57.857Z,6.47
2022-11-05T16:18:30.587Z,6.43
2022-11-05T16:21:17.201Z,6.41
2022-11-05T16:24:01.262Z,6.51
2022-11-05T16:27:02.177Z,6.49
2022-11-05T16:29:27.534Z,6.46
2022-11-05T16:31:56.020Z,6.54
2022-11-05T16:34:31.756Z,6.51
2022-11-05T16:36:59.695Z,6.48
2022-11-05T16:39:28.202Z,6.46
2022-11-05T16:41:56.066Z,6.40
2022-11-05T16:44:24.821Z,6.39
2022-11-05T16:46:52.809Z,6.40
2022-11-05T16:49:20.658Z,6.39
2022-11-05T16:51:48.415Z,6.39
2022-11-05T16:54:17.013Z,6.38
2022-11-05T16:56:47.090Z,6.36
2022-11-05T16:59:15.612Z,6.29
2022-11-05T17:01:44.683Z,6.28
2022-11-05T17:04:14.351Z,6.27
2022-11-05T17:06:45.182Z,6.12
2022-11-05T17:09:13.101Z,6.19
2022-11-05T17:11:41.076Z,6.20
2022-11-05T17:14:11.441Z,6.17
2022-11-05T17:16:40.238Z,6.16
2022-11-05T17:19:10.396Z,6.07
2022-11-05T17:21:40.455Z,6.04
2022-11-05T17:24:09.768Z,6.12
2022-11-05T17:26:38.619Z,6.12
2022-11-05T17:29:07.175Z,6.05
2022-11-05T17:31:35.355Z,6.05
2022-11-05T17:34:03.847Z,6.00
2022-11-05T17:36:34.493Z,5.95
2022-11-05T17:39:04.628Z,5.94
2022-11-05T17:41:33.693Z,5.89
2022-11-05T17:44:01.818Z,5.90
2022-11-05T17:46:29.837Z,5.84
2022-11-05T17:48:57.591Z,5.84
2022-11-05T17:51:25.603Z,5.89
2022-11-05T17:53:53.626Z,5.87
2022-11-05T17:56:33.442Z,5.85
2022-11-05T17:59:02.723Z,5.83
2022-11-05T18:01:33.584Z,5.74
2022-11-05T18:04:08.249Z,5.78
2022-11-05T18:06:38.691Z,5.78
2022-11-05T18:09:07.274Z,5.75
2022-11-05T18:11:36.373Z,5.69
2022-11-05T18:14:04.926Z,5.67
2022-11-05T18:16:33.120Z,5.61
2022-11-05T18:19:01.188Z,5.60
2022-11-05T18:21:30.189Z,5.66
2022-11-05T18:23:58.102Z,5.65
2022-11-05T18:26:25.923Z,5.64
2022-11-05T18:28:53.795Z,5.60
2022-11-05T18:31:21.766Z,5.51
2022-11-05T18:33:49.881Z,5.54
2022-11-05T18:36:28.177Z,5.55
2022-11-05T18:38:57.839Z,5.47
2022-11-05T18:41:25.488Z,5.46
2022-11-05T18:43:53.151Z,5.50
2022-11-05T18:46:51.327Z,5.53
2022-11-05T18:49:10.098Z,5.53
2022-11-05T18:51:37.780Z,5.43
2022-11-05T18:54:05.505Z,5.44
2022-11-05T18:56:33.384Z,5.45
2022-11-05T18:59:30.118Z,5.51
2022-11-05T19:01:50.965Z,5.49
2022-11-05T19:04:19.281Z,5.47
2022-11-05T19:06:48.796Z,5.44
2022-11-05T19:09:17.272Z,5.42
2022-11-05T19:11:45.345Z,5.34
2022-11-05T19:14:13.250Z,5.36
2022-11-05T19:16:41.180Z,5.31
2022-11-05T19:19:10.244Z,5.31
2022-11-05T19:21:39.786Z,5.41
2022-11-05T19:24:08.484Z,5.41
2022-11-05T19:26:36.259Z,5.42
2022-11-05T19:29:04.787Z,5.42
2022-11-05T19:31:34.369Z,5.32
2022-11-05T19:34:03.531Z,5.34
2022-11-05T19:36:33.954Z,5.33
2022-11-05T19:39:04.617Z,5.36
2022-11-05T19:41:33.506Z,5.36
2022-11-05T19:44:02.661Z,5.38
2022-11-05T19:46:31.098Z,5.38
2022-11-05T19:49:00.501Z,5.33
2022-11-05T19:51:29.892Z,5.32
2022-11-05T19:54:00.189Z,5.34
2022-11-05T19:56:29.995Z,5.26
2022-11-05T19:58:57.883Z,5.28
2022-11-05T20:01:26.901Z,5.22
2022-11-05T20:03:55.630Z,5.23
2022-11-05T20:06:34.927Z,5.29
2022-11-05T20:11:56.507Z,5.27
2022-11-05T20:14:25.037Z,5.26
2022-11-05T20:16:52.948Z,5.27
2022-11-05T20:19:21.625Z,5.27
2022-11-05T20:21:50.136Z,5.33
2022-11-05T20:24:24.074Z,5.34
2022-11-05T20:26:54.680Z,5.31
2022-11-05T20:29:22.429Z,5.33
2022-11-05T20:31:50.444Z,5.27
2022-11-05T20:34:17.943Z,5.19
2022-11-05T20:36:45.699Z,5.19
2022-11-05T20:39:13.361Z,5.17
2022-11-05T20:41:40.963Z,5.20
2022-11-05T20:44:08.575Z,5.25
2022-11-05T20:46:36.240Z,5.29
2022-11-05T20:49:03.793Z,5.26
2022-11-05T20:51:31.390Z,5.24
2022-11-05T20:53:59.959Z,5.25
2022-11-05T20:56:29.713Z,5.17
2022-11-05T20:58:58.599Z,5.16
2022-11-05T21:01:31.145Z,5.17
2022-11-05T21:04:00.170Z,5.21
2022-11-05T21:06:28.003Z,5.19
2022-11-05T21:08:55.711Z,5.18
2022-11-05T21:11:50.319Z,5.22
2022-11-05T21:14:18.138Z,5.25
2022-11-05T21:16:45.738Z,5.25
2022-11-05T21:19:15.272Z,5.24
2022-11-05T21:21:42.775Z,5.18
2022-11-05T21:24:10.348Z,5.19
2022-11-05T21:26:37.892Z,5.04
2022-11-05T21:29:05.768Z,5.17
2022-11-05T21:31:38.572Z,5.14
2022-11-05T21:34:06.525Z,5.21
2022-11-05T21:36:34.281Z,5.23
2022-11-05T21:39:02.030Z,5.26
2022-11-05T21:41:31.146Z,5.17
2022-11-05T21:43:58.868Z,5.16
2022-11-05T21:46:26.551Z,5.18
2022-11-05T21:48:54.115Z,5.21
2022-11-05T21:51:40.558Z,5.21
2022-11-05T21:54:28.703Z,5.14
2022-11-05T21:57:15.202Z,5.09
2022-11-05T21:59:49.267Z,5.04
2022-11-05T22:02:20.868Z,5.08
2022-11-05T22:04:53.338Z,5.09
2022-11-05T22:07:23.188Z,4.99
2022-11-05T22:09:50.754Z,5.05
2022-11-05T22:12:20.375Z,5.02
2022-11-05T22:14:48.628Z,5.01
2022-11-05T22:17:16.684Z,5.01
2022-11-05T22:19:45.035Z,4.94
2022-11-05T22:22:12.660Z,4.96
2022-11-05T22:24:40.366Z,4.95
2022-11-05T22:27:12.530Z,4.92
2022-11-05T22:29:40.122Z,4.98
2022-11-05T22:32:07.820Z,4.89
2022-11-05T22:34:35.815Z,4.90
2022-11-05T22:37:03.630Z,4.98
2022-11-05T22:39:31.610Z,4.87
2022-11-05T22:42:02.965Z,4.84
2022-11-05T22:44:33.271Z,4.83
2022-11-05T22:47:00.945Z,4.86
2022-11-05T22:49:28.978Z,4.80
2022-11-05T22:51:56.756Z,4.81
2022-11-05T22:54:24.327Z,4.77
2022-11-05T22:56:53.877Z,4.74
2022-11-05T22:59:21.628Z,4.67
2022-11-05T23:01:49.548Z,4.69
2022-11-05T23:04:17.924Z,4.68
2022-11-05T23:07:04.405Z,4.67
2022-11-05T23:09:51.829Z,4.64
2022-11-05T23:12:21.985Z,4.68
2022-11-05T23:14:49.830Z,4.65
2022-11-05T23:17:36.314Z,4.63
2022-11-05T23:20:29.930Z,4.70
2022-11-05T23:23:16.077Z,4.77
2022-11-05T23:25:43.644Z,4.70
2022-11-05T23:28:11.593Z,4.63
2022-11-05T23:31:01.627Z,4.63
2022-11-05T23:33:29.471Z,4.61
2022-11-05T23:36:15.506Z,4.51
2022-11-05T23:38:43.082Z,4.54
2022-11-05T23:41:29.043Z,4.48
2022-11-05T23:44:15.166Z,4.40
2022-11-05T23:47:01.373Z,4.45
2022-11-05T23:49:29.075Z,4.48
2022-11-05T23:51:56.669Z,4.43
2022-11-05T23:54:25.278Z,4.37
2022-11-05T23:56:53.675Z,4.37
2022-11-05T23:59:21.283Z,4.30
